Longport, New Jersey
Current Conditions -  °F | °C
As of 5:54 PM on Wednesday 26 Nov 2014 (Local Time) from KACY Reporting Station
Light Snow Light Snow  
Wind Chill: 27°   Ceiling: 700
Heat Index: 37°   Visibility: 2.5mi
Dew Point: 36°   Wind: 20mph
Humidity: 96%   Direction: 350°N
Pressure: 29.76"   Gusts: 23mph
Location:  39.31°N, 74.52°W
Report Text: KACY 262254Z 35017G20KT 2 1/2SM -SN BR OVC007 03/02 A2976 RMK AO2 CIG 005V010 SLP078 P0003 T00280022
Loading
Personal Weather Stations






























Interactive Weather Map New forecast layout! Learn more

10-Day Weather Forecast

Advertisements
Track Severe Weather on mobile